Terminal Aerodrome Forecast
Issued by NWS

Home | Current Version | Previous Version | Text Only | Print | Product List | Glossary On
Versions: 1 2 3 4 5 6 7 8 9 10 11 12 13 14 15 16 17 18 19 20 21 22 23 24 25
000
FTUS46 KSEW 261736
TAFSEA
TAF
KSEA 261736Z 2618/2724 21006KT P6SM SCT017 OVC025
     FM262100 21012KT P6SM SCT030 BKN040
     FM270000 22011KT P6SM VCSH BKN040
     FM270400 20013KT P6SM -SHRA BKN025 OVC040
     FM270700 18012KT P6SM VCSH OVC030
     FM271200 19012KT P6SM VCSH OVC025
     FM272100 21012KT P6SM VCSH BKN035=

USA.gov is the U.S. government's official web portal to all federal, state and local government web resources and services.